sensor_id;sensor_type;location;lat;lon;timestamp;P1;durP1;ratioP1;P2;durP2;ratioP2
33902;SDS011;20194;50.950;5.346;2023-02-01T00:01:43;26.90;;;6.53;;
33902;SDS011;20194;50.950;5.346;2023-02-01T00:04:09;25.90;;;6.22;;
33902;SDS011;20194;50.950;5.346;2023-02-01T00:06:35;20.35;;;6.18;;
33902;SDS011;20194;50.950;5.346;2023-02-01T00:09:01;21.98;;;6.70;;
33902;SDS011;20194;50.950;5.346;2023-02-01T00:11:27;32.00;;;8.18;;
33902;SDS011;20194;50.950;5.346;2023-02-01T00:13:53;25.08;;;6.82;;
33902;SDS011;20194;50.950;5.346;2023-02-01T00:16:20;33.35;;;8.05;;
33902;SDS011;20194;50.950;5.346;2023-02-01T00:18:49;36.45;;;7.93;;
33902;SDS011;20194;50.950;5.346;2023-02-01T00:21:17;29.17;;;8.05;;
33902;SDS011;20194;50.950;5.346;2023-02-01T00:23:44;26.17;;;10.10;;
33902;SDS011;20194;50.950;5.346;2023-02-01T00:26:14;21.42;;;8.20;;
33902;SDS011;20194;50.950;5.346;2023-02-01T00:28:42;29.65;;;8.35;;
33902;SDS011;20194;50.950;5.346;2023-02-01T00:31:07;24.95;;;7.93;;
33902;SDS011;20194;50.950;5.346;2023-02-01T00:33:33;21.27;;;7.95;;
33902;SDS011;20194;50.950;5.346;2023-02-01T00:36:00;32.50;;;9.10;;
33902;SDS011;20194;50.950;5.346;2023-02-01T00:38:27;33.80;;;8.90;;
33902;SDS011;20194;50.950;5.346;2023-02-01T00:40:54;23.98;;;8.27;;
33902;SDS011;20194;50.950;5.346;2023-02-01T00:43:26;37.55;;;10.10;;
33902;SDS011;20194;50.950;5.346;2023-02-01T00:45:52;27.85;;;9.23;;
33902;SDS011;20194;50.950;5.346;2023-02-01T00:48:18;27.77;;;8.93;;
33902;SDS011;20194;50.950;5.346;2023-02-01T00:50:44;35.15;;;10.02;;
33902;SDS011;20194;50.950;5.346;2023-02-01T00:53:10;22.88;;;8.90;;
33902;SDS011;20194;50.950;5.346;2023-02-01T00:55:36;40.15;;;9.73;;
33902;SDS011;20194;50.950;5.346;2023-02-01T00:58:01;37.42;;;9.80;;
33902;SDS011;20194;50.950;5.346;2023-02-01T01:00:28;24.00;;;7.95;;
33902;SDS011;20194;50.950;5.346;2023-02-01T01:02:54;31.30;;;10.77;;
33902;SDS011;20194;50.950;5.346;2023-02-01T01:05:20;28.00;;;7.80;;
33902;SDS011;20194;50.950;5.346;2023-02-01T01:07:46;35.65;;;8.85;;
33902;SDS011;20194;50.950;5.346;2023-02-01T01:10:12;29.27;;;8.82;;
33902;SDS011;20194;50.950;5.346;2023-02-01T01:12:38;30.33;;;8.80;;
33902;SDS011;20194;50.950;5.346;2023-02-01T01:15:03;29.00;;;8.40;;
33902;SDS011;20194;50.950;5.346;2023-02-01T01:17:30;36.55;;;10.93;;
33902;SDS011;20194;50.950;5.346;2023-02-01T01:19:56;24.65;;;8.95;;
33902;SDS011;20194;50.950;5.346;2023-02-01T01:22:22;22.80;;;8.77;;
33902;SDS011;20194;50.950;5.346;2023-02-01T01:24:47;28.17;;;10.20;;
33902;SDS011;20194;50.950;5.346;2023-02-01T01:27:14;37.70;;;10.23;;
33902;SDS011;20194;50.950;5.346;2023-02-01T01:29:40;38.28;;;10.50;;
33902;SDS011;20194;50.950;5.346;2023-02-01T01:32:05;39.13;;;9.88;;
33902;SDS011;20194;50.950;5.346;2023-02-01T01:34:31;31.52;;;10.35;;
33902;SDS011;20194;50.950;5.346;2023-02-01T01:36:56;34.63;;;10.40;;
33902;SDS011;20194;50.950;5.346;2023-02-01T01:39:23;39.85;;;11.25;;
33902;SDS011;20194;50.950;5.346;2023-02-01T01:41:48;41.10;;;10.52;;
33902;SDS011;20194;50.950;5.346;2023-02-01T01:47:17;29.10;;;9.95;;
33902;SDS011;20194;50.950;5.346;2023-02-01T01:49:43;39.63;;;10.70;;
33902;SDS011;20194;50.950;5.346;2023-02-01T01:52:09;41.30;;;12.68;;
33902;SDS011;20194;50.950;5.346;2023-02-01T01:54:37;34.60;;;11.75;;
33902;SDS011;20194;50.950;5.346;2023-02-01T01:57:09;35.10;;;11.90;;
33902;SDS011;20194;50.950;5.346;2023-02-01T01:59:42;29.63;;;11.50;;
33902;SDS011;20194;50.950;5.346;2023-02-01T02:02:13;37.35;;;12.25;;
33902;SDS011;20194;50.950;5.346;2023-02-01T02:04:39;34.83;;;10.98;;
33902;SDS011;20194;50.950;5.346;2023-02-01T02:07:07;37.38;;;10.98;;
33902;SDS011;20194;50.950;5.346;2023-02-01T02:09:37;24.88;;;10.60;;
33902;SDS011;20194;50.950;5.346;2023-02-01T02:12:03;25.63;;;11.07;;
33902;SDS011;20194;50.950;5.346;2023-02-01T02:14:29;27.23;;;9.57;;
33902;SDS011;20194;50.950;5.346;2023-02-01T02:17:07;26.17;;;9.68;;
33902;SDS011;20194;50.950;5.346;2023-02-01T02:41:15;25.58;;;5.22;;
33902;SDS011;20194;50.950;5.346;2023-02-01T02:44:13;22.15;;;4.60;;
33902;SDS011;20194;50.950;5.346;2023-02-01T02:47:13;24.60;;;5.60;;
33902;SDS011;20194;50.950;5.346;2023-02-01T02:53:15;24.20;;;4.88;;
33902;SDS011;20194;50.950;5.346;2023-02-01T02:58:47;21.88;;;3.60;;
33902;SDS011;20194;50.950;5.346;2023-02-01T03:01:33;26.35;;;3.33;;
33902;SDS011;20194;50.950;5.346;2023-02-01T03:04:18;20.33;;;4.50;;
33902;SDS011;20194;50.950;5.346;2023-02-01T03:06:45;23.90;;;3.63;;
33902;SDS011;20194;50.950;5.346;2023-02-01T03:09:16;27.35;;;3.70;;
33902;SDS011;20194;50.950;5.346;2023-02-01T03:12:08;24.65;;;3.63;;
33902;SDS011;20194;50.950;5.346;2023-02-01T03:14:57;20.85;;;3.20;;
33902;SDS011;20194;50.950;5.346;2023-02-01T03:17:33;20.52;;;3.47;;
33902;SDS011;20194;50.950;5.346;2023-02-01T03:20:04;21.50;;;4.87;;
33902;SDS011;20194;50.950;5.346;2023-02-01T03:22:31;21.48;;;4.75;;
33902;SDS011;20194;50.950;5.346;2023-02-01T03:25:20;31.10;;;5.03;;
33902;SDS011;20194;50.950;5.346;2023-02-01T03:27:52;18.25;;;3.60;;
33902;SDS011;20194;50.950;5.346;2023-02-01T03:30:43;23.33;;;3.00;;
33902;SDS011;20194;50.950;5.346;2023-02-01T03:33:11;23.77;;;3.83;;
33902;SDS011;20194;50.950;5.346;2023-02-01T03:47:13;12.90;;;2.60;;
33902;SDS011;20194;50.950;5.346;2023-02-01T03:49:46;19.67;;;3.45;;
33902;SDS011;20194;50.950;5.346;2023-02-01T03:52:29;20.25;;;3.67;;
33902;SDS011;20194;50.950;5.346;2023-02-01T03:54:59;16.27;;;3.72;;
33902;SDS011;20194;50.950;5.346;2023-02-01T03:57:27;28.15;;;4.65;;
33902;SDS011;20194;50.950;5.346;2023-02-01T04:00:04;25.17;;;3.88;;
33902;SDS011;20194;50.950;5.346;2023-02-01T04:02:40;19.80;;;3.50;;
33902;SDS011;20194;50.950;5.346;2023-02-01T04:05:06;22.58;;;3.90;;
33902;SDS011;20194;50.950;5.346;2023-02-01T04:07:32;30.02;;;4.30;;
33902;SDS011;20194;50.950;5.346;2023-02-01T04:09:58;26.67;;;3.33;;
33902;SDS011;20194;50.950;5.346;2023-02-01T04:12:23;19.38;;;4.45;;
33902;SDS011;20194;50.950;5.346;2023-02-01T04:14:49;20.70;;;3.28;;
33902;SDS011;20194;50.950;5.346;2023-02-01T04:17:15;23.08;;;3.97;;
33902;SDS011;20194;50.950;5.346;2023-02-01T04:19:41;22.65;;;3.90;;
33902;SDS011;20194;50.950;5.346;2023-02-01T04:22:07;29.40;;;3.63;;
33902;SDS011;20194;50.950;5.346;2023-02-01T04:24:32;23.73;;;3.42;;
33902;SDS011;20194;50.950;5.346;2023-02-01T04:26:58;24.33;;;3.75;;
33902;SDS011;20194;50.950;5.346;2023-02-01T04:29:24;23.90;;;4.03;;
33902;SDS011;20194;50.950;5.346;2023-02-01T04:31:49;27.42;;;3.58;;
33902;SDS011;20194;50.950;5.346;2023-02-01T04:34:15;31.27;;;4.18;;
33902;SDS011;20194;50.950;5.346;2023-02-01T04:36:41;26.08;;;4.20;;
33902;SDS011;20194;50.950;5.346;2023-02-01T04:39:08;27.38;;;3.55;;
33902;SDS011;20194;50.950;5.346;2023-02-01T04:41:34;26.60;;;3.95;;
33902;SDS011;20194;50.950;5.346;2023-02-01T04:44:00;18.27;;;3.50;;
33902;SDS011;20194;50.950;5.346;2023-02-01T04:46:26;26.88;;;5.10;;
33902;SDS011;20194;50.950;5.346;2023-02-01T04:48:52;22.85;;;3.45;;
33902;SDS011;20194;50.950;5.346;2023-02-01T04:51:18;19.58;;;3.20;;
33902;SDS011;20194;50.950;5.346;2023-02-01T04:53:44;24.20;;;3.75;;
33902;SDS011;20194;50.950;5.346;2023-02-01T04:56:10;16.42;;;3.28;;
33902;SDS011;20194;50.950;5.346;2023-02-01T04:58:36;19.85;;;2.63;;
33902;SDS011;20194;50.950;5.346;2023-02-01T05:01:02;24.10;;;3.03;;
33902;SDS011;20194;50.950;5.346;2023-02-01T05:03:29;24.63;;;4.05;;
33902;SDS011;20194;50.950;5.346;2023-02-01T05:05:56;19.17;;;3.72;;
33902;SDS011;20194;50.950;5.346;2023-02-01T05:08:22;19.10;;;3.00;;
33902;SDS011;20194;50.950;5.346;2023-02-01T05:10:50;22.98;;;3.90;;
33902;SDS011;20194;50.950;5.346;2023-02-01T05:13:15;24.67;;;3.55;;
33902;SDS011;20194;50.950;5.346;2023-02-01T05:16:00;31.83;;;3.72;;
33902;SDS011;20194;50.950;5.346;2023-02-01T05:18:25;17.73;;;3.50;;
33902;SDS011;20194;50.950;5.346;2023-02-01T05:20:51;22.08;;;3.45;;
33902;SDS011;20194;50.950;5.346;2023-02-01T05:23:17;14.63;;;2.70;;
33902;SDS011;20194;50.950;5.346;2023-02-01T05:25:42;23.30;;;3.45;;
33902;SDS011;20194;50.950;5.346;2023-02-01T05:28:09;28.42;;;4.35;;
33902;SDS011;20194;50.950;5.346;2023-02-01T05:30:34;19.42;;;3.50;;
33902;SDS011;20194;50.950;5.346;2023-02-01T05:33:01;33.03;;;3.92;;
33902;SDS011;20194;50.950;5.346;2023-02-01T05:35:27;24.10;;;3.15;;
33902;SDS011;20194;50.950;5.346;2023-02-01T05:37:53;27.33;;;4.15;;
33902;SDS011;20194;50.950;5.346;2023-02-01T05:40:19;30.23;;;3.95;;
33902;SDS011;20194;50.950;5.346;2023-02-01T05:42:45;26.75;;;3.63;;
33902;SDS011;20194;50.950;5.346;2023-02-01T05:45:11;25.50;;;3.92;;
33902;SDS011;20194;50.950;5.346;2023-02-01T05:47:37;24.38;;;3.47;;
33902;SDS011;20194;50.950;5.346;2023-02-01T05:50:03;26.63;;;3.38;;
33902;SDS011;20194;50.950;5.346;2023-02-01T05:52:29;23.30;;;3.35;;
33902;SDS011;20194;50.950;5.346;2023-02-01T05:54:55;23.45;;;3.60;;
33902;SDS011;20194;50.950;5.346;2023-02-01T05:57:21;32.97;;;3.65;;
33902;SDS011;20194;50.950;5.346;2023-02-01T05:59:47;27.42;;;4.47;;
33902;SDS011;20194;50.950;5.346;2023-02-01T06:02:13;26.90;;;3.28;;
33902;SDS011;20194;50.950;5.346;2023-02-01T06:04:40;25.55;;;3.38;;
33902;SDS011;20194;50.950;5.346;2023-02-01T06:07:06;20.40;;;3.70;;
33902;SDS011;20194;50.950;5.346;2023-02-01T06:09:34;19.20;;;3.95;;
33902;SDS011;20194;50.950;5.346;2023-02-01T06:12:00;22.65;;;4.47;;
33902;SDS011;20194;50.950;5.346;2023-02-01T06:14:26;26.25;;;3.97;;
33902;SDS011;20194;50.950;5.346;2023-02-01T06:16:53;20.35;;;3.17;;
33902;SDS011;20194;50.950;5.346;2023-02-01T06:19:20;28.70;;;4.18;;
33902;SDS011;20194;50.950;5.346;2023-02-01T06:21:46;31.55;;;3.83;;
33902;SDS011;20194;50.950;5.346;2023-02-01T06:24:12;24.75;;;4.10;;
33902;SDS011;20194;50.950;5.346;2023-02-01T06:26:38;17.98;;;3.03;;
33902;SDS011;20194;50.950;5.346;2023-02-01T06:29:05;21.17;;;4.30;;
33902;SDS011;20194;50.950;5.346;2023-02-01T06:31:39;26.13;;;3.53;;
33902;SDS011;20194;50.950;5.346;2023-02-01T06:34:07;23.20;;;3.92;;
33902;SDS011;20194;50.950;5.346;2023-02-01T06:36:33;34.22;;;4.15;;
33902;SDS011;20194;50.950;5.346;2023-02-01T06:38:58;23.80;;;4.18;;
33902;SDS011;20194;50.950;5.346;2023-02-01T06:41:24;18.83;;;3.92;;
33902;SDS011;20194;50.950;5.346;2023-02-01T06:43:51;23.90;;;4.47;;
33902;SDS011;20194;50.950;5.346;2023-02-01T06:46:17;25.02;;;4.07;;
33902;SDS011;20194;50.950;5.346;2023-02-01T06:48:43;22.10;;;3.47;;
33902;SDS011;20194;50.950;5.346;2023-02-01T06:51:23;26.65;;;3.70;;
33902;SDS011;20194;50.950;5.346;2023-02-01T06:53:51;35.38;;;3.80;;
33902;SDS011;20194;50.950;5.346;2023-02-01T06:56:17;30.95;;;5.00;;
33902;SDS011;20194;50.950;5.346;2023-02-01T06:58:44;29.70;;;6.30;;
33902;SDS011;20194;50.950;5.346;2023-02-01T07:01:10;22.65;;;3.47;;
33902;SDS011;20194;50.950;5.346;2023-02-01T07:03:36;28.55;;;5.22;;
33902;SDS011;20194;50.950;5.346;2023-02-01T07:06:02;25.27;;;4.18;;
33902;SDS011;20194;50.950;5.346;2023-02-01T07:08:30;24.40;;;3.67;;
33902;SDS011;20194;50.950;5.346;2023-02-01T07:10:57;21.65;;;4.25;;
33902;SDS011;20194;50.950;5.346;2023-02-01T07:13:34;30.48;;;4.30;;
33902;SDS011;20194;50.950;5.346;2023-02-01T07:16:01;23.25;;;4.00;;
33902;SDS011;20194;50.950;5.346;2023-02-01T07:18:28;23.88;;;4.05;;
33902;SDS011;20194;50.950;5.346;2023-02-01T07:20:54;20.63;;;3.88;;
33902;SDS011;20194;50.950;5.346;2023-02-01T07:23:21;21.92;;;3.75;;
33902;SDS011;20194;50.950;5.346;2023-02-01T07:25:47;19.30;;;4.85;;
33902;SDS011;20194;50.950;5.346;2023-02-01T07:28:13;25.15;;;4.20;;
33902;SDS011;20194;50.950;5.346;2023-02-01T07:30:39;23.45;;;3.60;;
33902;SDS011;20194;50.950;5.346;2023-02-01T07:33:06;20.38;;;3.47;;
33902;SDS011;20194;50.950;5.346;2023-02-01T07:35:32;25.50;;;3.47;;
33902;SDS011;20194;50.950;5.346;2023-02-01T07:37:57;31.25;;;4.75;;
33902;SDS011;20194;50.950;5.346;2023-02-01T07:40:24;23.67;;;3.35;;
33902;SDS011;20194;50.950;5.346;2023-02-01T07:42:56;20.40;;;4.00;;
33902;SDS011;20194;50.950;5.346;2023-02-01T07:45:22;26.80;;;3.35;;
33902;SDS011;20194;50.950;5.346;2023-02-01T07:47:48;36.00;;;3.75;;
33902;SDS011;20194;50.950;5.346;2023-02-01T07:50:16;29.23;;;4.35;;
33902;SDS011;20194;50.950;5.346;2023-02-01T07:52:42;29.95;;;3.58;;
33902;SDS011;20194;50.950;5.346;2023-02-01T07:55:07;30.13;;;4.07;;
33902;SDS011;20194;50.950;5.346;2023-02-01T07:57:34;24.58;;;5.72;;
33902;SDS011;20194;50.950;5.346;2023-02-01T07:59:59;30.30;;;4.22;;
33902;SDS011;20194;50.950;5.346;2023-02-01T08:05:09;20.90;;;4.18;;
33902;SDS011;20194;50.950;5.346;2023-02-01T08:07:35;35.45;;;5.15;;
33902;SDS011;20194;50.950;5.346;2023-02-01T08:10:01;26.55;;;4.35;;
33902;SDS011;20194;50.950;5.346;2023-02-01T08:12:27;18.92;;;3.55;;
33902;SDS011;20194;50.950;5.346;2023-02-01T08:14:53;33.95;;;4.63;;
33902;SDS011;20194;50.950;5.346;2023-02-01T08:17:19;23.15;;;2.95;;
33902;SDS011;20194;50.950;5.346;2023-02-01T08:19:45;26.15;;;4.60;;
33902;SDS011;20194;50.950;5.346;2023-02-01T08:22:10;17.73;;;3.75;;
33902;SDS011;20194;50.950;5.346;2023-02-01T08:24:36;28.90;;;5.15;;
33902;SDS011;20194;50.950;5.346;2023-02-01T08:27:05;22.20;;;3.95;;
33902;SDS011;20194;50.950;5.346;2023-02-01T08:29:31;35.15;;;4.45;;
33902;SDS011;20194;50.950;5.346;2023-02-01T08:31:57;26.10;;;4.47;;
33902;SDS011;20194;50.950;5.346;2023-02-01T08:34:22;29.60;;;4.43;;
33902;SDS011;20194;50.950;5.346;2023-02-01T08:36:48;31.45;;;5.20;;
33902;SDS011;20194;50.950;5.346;2023-02-01T08:39:14;34.47;;;5.22;;
33902;SDS011;20194;50.950;5.346;2023-02-01T08:41:39;27.05;;;3.78;;
33902;SDS011;20194;50.950;5.346;2023-02-01T08:44:07;25.48;;;4.00;;
33902;SDS011;20194;50.950;5.346;2023-02-01T08:46:33;28.25;;;4.10;;
33902;SDS011;20194;50.950;5.346;2023-02-01T08:48:59;31.92;;;4.30;;
33902;SDS011;20194;50.950;5.346;2023-02-01T08:51:25;29.60;;;3.65;;
33902;SDS011;20194;50.950;5.346;2023-02-01T08:53:51;26.17;;;4.05;;
33902;SDS011;20194;50.950;5.346;2023-02-01T08:56:17;25.63;;;4.05;;
33902;SDS011;20194;50.950;5.346;2023-02-01T08:58:44;18.15;;;3.35;;
33902;SDS011;20194;50.950;5.346;2023-02-01T09:01:12;21.38;;;4.38;;
33902;SDS011;20194;50.950;5.346;2023-02-01T09:03:40;24.48;;;3.92;;
33902;SDS011;20194;50.950;5.346;2023-02-01T09:06:07;26.85;;;3.92;;
33902;SDS011;20194;50.950;5.346;2023-02-01T09:08:34;32.00;;;4.78;;
33902;SDS011;20194;50.950;5.346;2023-02-01T09:11:01;26.33;;;3.72;;
33902;SDS011;20194;50.950;5.346;2023-02-01T09:13:29;30.13;;;5.00;;
33902;SDS011;20194;50.950;5.346;2023-02-01T09:15:55;25.00;;;3.88;;
33902;SDS011;20194;50.950;5.346;2023-02-01T09:18:20;19.08;;;3.70;;
33902;SDS011;20194;50.950;5.346;2023-02-01T09:20:46;17.05;;;3.20;;
33902;SDS011;20194;50.950;5.346;2023-02-01T09:23:12;24.38;;;4.60;;
33902;SDS011;20194;50.950;5.346;2023-02-01T09:25:38;22.85;;;4.30;;
33902;SDS011;20194;50.950;5.346;2023-02-01T09:28:04;39.45;;;4.88;;
33902;SDS011;20194;50.950;5.346;2023-02-01T09:30:31;30.58;;;5.03;;
33902;SDS011;20194;50.950;5.346;2023-02-01T09:32:58;25.85;;;4.38;;
33902;SDS011;20194;50.950;5.346;2023-02-01T09:35:23;25.10;;;4.10;;
33902;SDS011;20194;50.950;5.346;2023-02-01T09:37:50;24.92;;;4.90;;
33902;SDS011;20194;50.950;5.346;2023-02-01T09:40:18;16.58;;;3.42;;
33902;SDS011;20194;50.950;5.346;2023-02-01T09:42:55;31.27;;;4.53;;
33902;SDS011;20194;50.950;5.346;2023-02-01T09:48:32;26.55;;;5.22;;
33902;SDS011;20194;50.950;5.346;2023-02-01T09:51:02;39.72;;;7.50;;
33902;SDS011;20194;50.950;5.346;2023-02-01T09:53:36;37.33;;;4.72;;
33902;SDS011;20194;50.950;5.346;2023-02-01T09:58:41;24.58;;;4.07;;
33902;SDS011;20194;50.950;5.346;2023-02-01T10:01:19;18.95;;;3.67;;
33902;SDS011;20194;50.950;5.346;2023-02-01T10:03:48;30.85;;;6.70;;
33902;SDS011;20194;50.950;5.346;2023-02-01T10:06:30;23.85;;;3.83;;
33902;SDS011;20194;50.950;5.346;2023-02-01T10:09:20;14.85;;;3.78;;
33902;SDS011;20194;50.950;5.346;2023-02-01T10:18:11;24.50;;;4.07;;
33902;SDS011;20194;50.950;5.346;2023-02-01T10:22:01;28.58;;;4.82;;
33902;SDS011;20194;50.950;5.346;2023-02-01T10:24:02;32.25;;;3.70;;
33902;SDS011;20194;50.950;5.346;2023-02-01T10:26:44;23.15;;;4.32;;
33902;SDS011;20194;50.950;5.346;2023-02-01T10:29:19;22.98;;;3.13;;
33902;SDS011;20194;50.950;5.346;2023-02-01T10:31:47;18.35;;;3.63;;
33902;SDS011;20194;50.950;5.346;2023-02-01T10:34:24;19.83;;;3.05;;
33902;SDS011;20194;50.950;5.346;2023-02-01T10:39:54;18.73;;;2.88;;
33902;SDS011;20194;50.950;5.346;2023-02-01T10:42:24;27.60;;;3.47;;
33902;SDS011;20194;50.950;5.346;2023-02-01T10:44:52;21.38;;;4.93;;
33902;SDS011;20194;50.950;5.346;2023-02-01T10:47:21;14.98;;;3.17;;
33902;SDS011;20194;50.950;5.346;2023-02-01T10:49:49;22.65;;;3.85;;
33902;SDS011;20194;50.950;5.346;2023-02-01T10:52:36;20.33;;;4.40;;
33902;SDS011;20194;50.950;5.346;2023-02-01T10:58:02;18.85;;;2.58;;
33902;SDS011;20194;50.950;5.346;2023-02-01T11:00:39;20.27;;;4.15;;
33902;SDS011;20194;50.950;5.346;2023-02-01T11:06:51;29.00;;;4.00;;
33902;SDS011;20194;50.950;5.346;2023-02-01T11:11:32;21.33;;;4.07;;
33902;SDS011;20194;50.950;5.346;2023-02-01T11:14:19;26.70;;;3.40;;
33902;SDS011;20194;50.950;5.346;2023-02-01T11:17:39;22.67;;;4.57;;
33902;SDS011;20194;50.950;5.346;2023-02-01T11:20:01;21.58;;;3.80;;
33902;SDS011;20194;50.950;5.346;2023-02-01T11:22:30;22.88;;;4.32;;
33902;SDS011;20194;50.950;5.346;2023-02-01T11:24:56;20.00;;;3.40;;
33902;SDS011;20194;50.950;5.346;2023-02-01T11:27:25;21.83;;;4.35;;
33902;SDS011;20194;50.950;5.346;2023-02-01T11:29:52;18.90;;;3.33;;
33902;SDS011;20194;50.950;5.346;2023-02-01T11:32:22;23.33;;;3.58;;
33902;SDS011;20194;50.950;5.346;2023-02-01T11:34:53;23.33;;;3.92;;
33902;SDS011;20194;50.950;5.346;2023-02-01T11:37:36;21.73;;;3.23;;
33902;SDS011;20194;50.950;5.346;2023-02-01T11:40:22;16.42;;;3.03;;
33902;SDS011;20194;50.950;5.346;2023-02-01T11:43:06;21.20;;;3.42;;
33902;SDS011;20194;50.950;5.346;2023-02-01T11:45:37;11.52;;;2.47;;
33902;SDS011;20194;50.950;5.346;2023-02-01T11:48:07;21.60;;;3.20;;
33902;SDS011;20194;50.950;5.346;2023-02-01T11:51:20;22.35;;;4.47;;
33902;SDS011;20194;50.950;5.346;2023-02-01T12:02:09;11.23;;;1.90;;
33902;SDS011;20194;50.950;5.346;2023-02-01T12:07:17;18.27;;;2.60;;
33902;SDS011;20194;50.950;5.346;2023-02-01T12:10:27;13.13;;;2.78;;
33902;SDS011;20194;50.950;5.346;2023-02-01T12:13:06;11.57;;;1.15;;
33902;SDS011;20194;50.950;5.346;2023-02-01T12:15:46;14.65;;;2.88;;
33902;SDS011;20194;50.950;5.346;2023-02-01T12:18:29;14.57;;;3.97;;
33902;SDS011;20194;50.950;5.346;2023-02-01T12:26:31;15.80;;;3.00;;
33902;SDS011;20194;50.950;5.346;2023-02-01T12:32:06;20.02;;;3.38;;
33902;SDS011;20194;50.950;5.346;2023-02-01T12:45:40;18.73;;;1.63;;
33902;SDS011;20194;50.950;5.346;2023-02-01T12:51:21;25.67;;;2.80;;
33902;SDS011;20194;50.950;5.346;2023-02-01T12:56:53;9.65;;;2.25;;
33902;SDS011;20194;50.950;5.346;2023-02-01T12:59:38;14.18;;;2.30;;
33902;SDS011;20194;50.950;5.346;2023-02-01T13:05:17;16.33;;;3.50;;
33902;SDS011;20194;50.950;5.346;2023-02-01T13:07:53;20.40;;;2.47;;
33902;SDS011;20194;50.950;5.346;2023-02-01T13:10:36;13.05;;;2.63;;
33902;SDS011;20194;50.950;5.346;2023-02-01T13:13:52;9.32;;;2.60;;
33902;SDS011;20194;50.950;5.346;2023-02-01T13:16:21;19.27;;;2.60;;
33902;SDS011;20194;50.950;5.346;2023-02-01T13:18:57;24.05;;;3.45;;
33902;SDS011;20194;50.950;5.346;2023-02-01T13:21:31;15.52;;;2.83;;
33902;SDS011;20194;50.950;5.346;2023-02-01T13:24:01;20.35;;;3.95;;
33902;SDS011;20194;50.950;5.346;2023-02-01T13:26:29;13.85;;;2.75;;
33902;SDS011;20194;50.950;5.346;2023-02-01T13:28:59;21.45;;;4.00;;
33902;SDS011;20194;50.950;5.346;2023-02-01T13:42:50;16.63;;;3.13;;
33902;SDS011;20194;50.950;5.346;2023-02-01T13:45:30;16.30;;;2.42;;
33902;SDS011;20194;50.950;5.346;2023-02-01T13:47:59;19.27;;;3.08;;
33902;SDS011;20194;50.950;5.346;2023-02-01T13:50:32;15.65;;;2.17;;
33902;SDS011;20194;50.950;5.346;2023-02-01T13:55:41;17.13;;;2.72;;
33902;SDS011;20194;50.950;5.346;2023-02-01T13:58:18;13.75;;;2.05;;
33902;SDS011;20194;50.950;5.346;2023-02-01T14:00:47;13.48;;;1.98;;
33902;SDS011;20194;50.950;5.346;2023-02-01T14:03:42;17.73;;;2.20;;
33902;SDS011;20194;50.950;5.346;2023-02-01T14:16:40;19.38;;;3.40;;
33902;SDS011;20194;50.950;5.346;2023-02-01T14:21:54;11.57;;;2.45;;
33902;SDS011;20194;50.950;5.346;2023-02-01T14:26:54;19.02;;;3.10;;
33902;SDS011;20194;50.950;5.346;2023-02-01T14:37:08;13.68;;;2.25;;
33902;SDS011;20194;50.950;5.346;2023-02-01T14:44:47;14.10;;;2.33;;
33902;SDS011;20194;50.950;5.346;2023-02-01T14:52:34;16.10;;;2.60;;
33902;SDS011;20194;50.950;5.346;2023-02-01T14:55:09;19.80;;;4.03;;
33902;SDS011;20194;50.950;5.346;2023-02-01T14:57:49;11.43;;;3.95;;
33902;SDS011;20194;50.950;5.346;2023-02-01T15:00:20;10.32;;;2.53;;
33902;SDS011;20194;50.950;5.346;2023-02-01T15:02:47;13.02;;;3.10;;
33902;SDS011;20194;50.950;5.346;2023-02-01T15:05:25;10.85;;;2.70;;
33902;SDS011;20194;50.950;5.346;2023-02-01T15:07:55;19.45;;;3.10;;
33902;SDS011;20194;50.950;5.346;2023-02-01T15:10:25;14.85;;;3.03;;
33902;SDS011;20194;50.950;5.346;2023-02-01T15:12:53;10.75;;;1.48;;
33902;SDS011;20194;50.950;5.346;2023-02-01T15:15:20;15.88;;;2.60;;
33902;SDS011;20194;50.950;5.346;2023-02-01T15:17:57;11.32;;;2.63;;
33902;SDS011;20194;50.950;5.346;2023-02-01T15:20:28;18.20;;;3.50;;
33902;SDS011;20194;50.950;5.346;2023-02-01T15:22:59;16.67;;;2.72;;
33902;SDS011;20194;50.950;5.346;2023-02-01T15:25:30;15.02;;;2.35;;
33902;SDS011;20194;50.950;5.346;2023-02-01T15:27:59;15.25;;;2.65;;
33902;SDS011;20194;50.950;5.346;2023-02-01T15:30:26;17.85;;;2.75;;
33902;SDS011;20194;50.950;5.346;2023-02-01T15:35:45;16.30;;;2.85;;
33902;SDS011;20194;50.950;5.346;2023-02-01T15:43:30;17.75;;;3.30;;
33902;SDS011;20194;50.950;5.346;2023-02-01T15:46:02;12.85;;;2.88;;
33902;SDS011;20194;50.950;5.346;2023-02-01T15:48:35;14.07;;;2.85;;
33902;SDS011;20194;50.950;5.346;2023-02-01T15:51:10;18.90;;;3.35;;
33902;SDS011;20194;50.950;5.346;2023-02-01T15:53:38;18.08;;;2.95;;
33902;SDS011;20194;50.950;5.346;2023-02-01T15:56:10;17.63;;;3.08;;
33902;SDS011;20194;50.950;5.346;2023-02-01T15:58:36;17.30;;;2.78;;
33902;SDS011;20194;50.950;5.346;2023-02-01T16:01:02;18.95;;;2.63;;
33902;SDS011;20194;50.950;5.346;2023-02-01T16:03:42;14.88;;;2.60;;
33902;SDS011;20194;50.950;5.346;2023-02-01T16:06:11;15.90;;;2.78;;
33902;SDS011;20194;50.950;5.346;2023-02-01T16:09:02;17.02;;;2.40;;
33902;SDS011;20194;50.950;5.346;2023-02-01T16:11:47;10.60;;;2.55;;
33902;SDS011;20194;50.950;5.346;2023-02-01T16:14:17;20.77;;;3.15;;
33902;SDS011;20194;50.950;5.346;2023-02-01T16:16:42;18.35;;;3.08;;
33902;SDS011;20194;50.950;5.346;2023-02-01T16:19:09;10.85;;;1.90;;
33902;SDS011;20194;50.950;5.346;2023-02-01T16:21:35;19.75;;;3.40;;
33902;SDS011;20194;50.950;5.346;2023-02-01T16:24:00;22.52;;;3.30;;
33902;SDS011;20194;50.950;5.346;2023-02-01T16:26:29;22.95;;;3.25;;
33902;SDS011;20194;50.950;5.346;2023-02-01T16:28:56;23.83;;;3.13;;
33902;SDS011;20194;50.950;5.346;2023-02-01T16:31:23;18.15;;;3.42;;
33902;SDS011;20194;50.950;5.346;2023-02-01T16:33:52;18.77;;;3.13;;
33902;SDS011;20194;50.950;5.346;2023-02-01T16:36:18;20.55;;;3.33;;
33902;SDS011;20194;50.950;5.346;2023-02-01T16:38:45;17.50;;;2.65;;
33902;SDS011;20194;50.950;5.346;2023-02-01T16:41:15;18.90;;;2.90;;
33902;SDS011;20194;50.950;5.346;2023-02-01T16:43:42;28.20;;;4.18;;
33902;SDS011;20194;50.950;5.346;2023-02-01T16:46:15;16.70;;;2.97;;
33902;SDS011;20194;50.950;5.346;2023-02-01T16:48:46;22.08;;;3.33;;
33902;SDS011;20194;50.950;5.346;2023-02-01T16:51:18;30.98;;;4.18;;
33902;SDS011;20194;50.950;5.346;2023-02-01T16:53:44;20.42;;;3.08;;
33902;SDS011;20194;50.950;5.346;2023-02-01T16:56:15;19.88;;;3.33;;
33902;SDS011;20194;50.950;5.346;2023-02-01T16:58:43;20.13;;;3.20;;
33902;SDS011;20194;50.950;5.346;2023-02-01T17:01:10;18.75;;;3.10;;
33902;SDS011;20194;50.950;5.346;2023-02-01T17:03:37;17.80;;;2.53;;
33902;SDS011;20194;50.950;5.346;2023-02-01T17:06:03;17.23;;;3.08;;
33902;SDS011;20194;50.950;5.346;2023-02-01T17:08:32;18.23;;;3.45;;
33902;SDS011;20194;50.950;5.346;2023-02-01T17:11:00;14.20;;;2.60;;
33902;SDS011;20194;50.950;5.346;2023-02-01T17:13:26;21.17;;;3.50;;
33902;SDS011;20194;50.950;5.346;2023-02-01T17:15:53;16.08;;;3.22;;
33902;SDS011;20194;50.950;5.346;2023-02-01T17:18:28;18.52;;;3.67;;
33902;SDS011;20194;50.950;5.346;2023-02-01T17:20:57;25.65;;;4.28;;
33902;SDS011;20194;50.950;5.346;2023-02-01T17:23:24;31.10;;;4.65;;
33902;SDS011;20194;50.950;5.346;2023-02-01T17:25:50;21.38;;;4.15;;
33902;SDS011;20194;50.950;5.346;2023-02-01T17:28:17;21.88;;;3.08;;
33902;SDS011;20194;50.950;5.346;2023-02-01T17:30:43;24.10;;;3.17;;
33902;SDS011;20194;50.950;5.346;2023-02-01T17:33:42;16.70;;;3.08;;
33902;SDS011;20194;50.950;5.346;2023-02-01T17:36:02;19.52;;;3.75;;